createdAt,value
2017-11-26T00:00:58.307Z,4.60
2017-11-26T00:03:26.698Z,4.60
2017-11-26T00:05:55.170Z,4.50
2017-11-26T00:08:22.833Z,4.50
2017-11-26T00:10:50.498Z,4.60
2017-11-26T00:13:18.893Z,4.50
2017-11-26T00:15:47.264Z,4.40
2017-11-26T00:18:14.922Z,4.40
2017-11-26T00:20:43.290Z,4.40
2017-11-26T00:23:10.896Z,4.40
2017-11-26T00:25:38.527Z,4.40
2017-11-26T00:28:06.903Z,4.40
2017-11-26T00:30:35.390Z,4.40
2017-11-26T00:33:03.758Z,4.40
2017-11-26T00:35:31.378Z,4.40
2017-11-26T00:37:58.977Z,4.50
2017-11-26T00:40:26.609Z,4.50
2017-11-26T00:42:54.317Z,4.50
2017-11-26T00:45:21.979Z,4.50
2017-11-26T00:47:49.642Z,4.50
2017-11-26T00:50:17.263Z,4.60
2017-11-26T00:52:45.400Z,4.60
2017-11-26T00:55:13.858Z,4.70
2017-11-26T00:57:42.247Z,4.70
2017-11-26T01:00:10.635Z,4.80
2017-11-26T01:02:39.098Z,4.80
2017-11-26T01:05:06.767Z,4.80
2017-11-26T01:07:34.432Z,4.80
2017-11-26T01:10:02.911Z,4.90
2017-11-26T01:12:30.546Z,4.80
2017-11-26T01:14:58.239Z,4.90
2017-11-26T01:17:25.867Z,4.90
2017-11-26T01:19:53.458Z,4.90
2017-11-26T01:22:26.804Z,4.90
2017-11-26T01:24:54.411Z,4.90
2017-11-26T01:27:22.087Z,4.90
2017-11-26T01:29:50.454Z,4.90
2017-11-26T01:32:18.081Z,4.90
2017-11-26T01:34:45.682Z,4.90
2017-11-26T01:37:13.308Z,4.90
2017-11-26T01:39:40.973Z,4.90
2017-11-26T01:42:08.603Z,5.00
2017-11-26T01:44:36.245Z,4.90
2017-11-26T01:47:04.626Z,4.90
2017-11-26T01:49:32.993Z,4.90
2017-11-26T01:52:00.642Z,4.80
2017-11-26T01:54:28.254Z,4.80
2017-11-26T01:56:55.887Z,4.80
2017-11-26T01:59:24.375Z,4.70
2017-11-26T02:01:52.755Z,4.70
2017-11-26T02:04:21.137Z,4.60
2017-11-26T02:06:49.508Z,4.60
2017-11-26T02:09:17.127Z,4.60
2017-11-26T02:11:44.833Z,4.60
2017-11-26T02:14:12.452Z,4.50
2017-11-26T02:16:40.053Z,4.50
2017-11-26T02:19:07.781Z,4.50
2017-11-26T02:21:35.378Z,4.40
2017-11-26T02:24:03.006Z,4.40
2017-11-26T02:26:30.705Z,4.40
2017-11-26T02:28:58.343Z,4.40
2017-11-26T02:31:37.917Z,4.40
2017-11-26T02:37:05.579Z,4.30
2017-11-26T02:39:33.994Z,4.20
2017-11-26T02:42:02.455Z,4.20
2017-11-26T02:44:30.102Z,4.20
2017-11-26T02:46:58.514Z,4.20
2017-11-26T02:49:26.997Z,4.20
2017-11-26T02:51:54.643Z,4.20
2017-11-26T02:54:22.243Z,4.20
2017-11-26T02:56:49.861Z,4.20
2017-11-26T02:59:17.538Z,4.10
2017-11-26T03:01:46.023Z,4.10
2017-11-26T03:04:14.501Z,4.10
2017-11-26T03:06:42.227Z,4.10
2017-11-26T03:09:09.930Z,4.20
2017-11-26T03:11:37.581Z,4.20
2017-11-26T03:14:05.253Z,4.20
2017-11-26T03:16:32.875Z,4.20
2017-11-26T03:19:00.466Z,4.20
2017-11-26T03:21:28.146Z,4.30
2017-11-26T03:23:56.509Z,4.30
2017-11-26T03:26:24.868Z,4.40
2017-11-26T03:28:52.486Z,4.30
2017-11-26T03:31:20.848Z,4.40
2017-11-26T03:33:48.505Z,4.30
2017-11-26T03:36:16.107Z,4.30
2017-11-26T03:38:43.720Z,4.30
2017-11-26T03:41:11.305Z,4.30
2017-11-26T03:43:39.681Z,4.20
2017-11-26T03:46:08.158Z,4.30
2017-11-26T03:48:35.776Z,4.30
2017-11-26T03:51:03.376Z,4.20
2017-11-26T03:53:32.497Z,4.20
2017-11-26T03:56:00.946Z,4.20
2017-11-26T03:58:28.620Z,4.20
2017-11-26T04:00:56.205Z,4.30
2017-11-26T04:03:24.597Z,4.30
2017-11-26T04:05:52.225Z,4.30
2017-11-26T04:08:19.822Z,4.30
2017-11-26T04:10:47.556Z,4.30
2017-11-26T04:13:16.542Z,4.40
2017-11-26T04:15:44.214Z,4.40
2017-11-26T04:18:11.900Z,4.40
2017-11-26T04:20:39.540Z,4.40
2017-11-26T04:23:07.904Z,4.40
2017-11-26T04:25:35.578Z,4.40
2017-11-26T04:28:03.241Z,4.40
2017-11-26T04:30:30.870Z,4.40
2017-11-26T04:32:58.459Z,4.50
2017-11-26T04:35:26.090Z,4.40
2017-11-26T04:37:53.698Z,4.40
2017-11-26T04:40:21.353Z,4.40
2017-11-26T04:42:49.018Z,4.40
2017-11-26T04:45:16.632Z,4.40
2017-11-26T04:47:44.226Z,4.40
2017-11-26T04:50:11.847Z,4.50
2017-11-26T04:52:39.438Z,4.50
2017-11-26T04:55:07.129Z,4.50
2017-11-26T04:57:34.797Z,4.50
2017-11-26T05:00:02.458Z,4.50
2017-11-26T05:02:30.127Z,4.60
2017-11-26T05:04:58.601Z,4.60
2017-11-26T05:07:27.081Z,4.70
2017-11-26T05:09:54.673Z,4.60
2017-11-26T05:12:22.289Z,4.70
2017-11-26T05:14:49.895Z,4.70
2017-11-26T05:17:18.275Z,4.80
2017-11-26T05:19:45.872Z,4.70
2017-11-26T05:22:13.528Z,4.80
2017-11-26T05:24:41.137Z,4.80
2017-11-26T05:27:08.796Z,4.80
2017-11-26T05:29:36.460Z,4.80
2017-11-26T05:32:04.069Z,4.90
2017-11-26T05:34:31.666Z,4.90
2017-11-26T05:36:59.281Z,4.90
2017-11-26T05:39:26.917Z,4.90
2017-11-26T05:41:54.530Z,4.90
2017-11-26T05:44:22.132Z,5.00
2017-11-26T05:46:49.805Z,5.00
2017-11-26T05:49:17.462Z,5.00
2017-11-26T05:51:45.054Z,5.00
2017-11-26T05:54:12.695Z,5.00
2017-11-26T05:56:41.061Z,5.00
2017-11-26T05:59:08.710Z,5.00
2017-11-26T06:01:36.394Z,5.00
2017-11-26T06:04:04.018Z,5.00
2017-11-26T06:06:31.608Z,5.00
2017-11-26T06:08:59.220Z,5.00
2017-11-26T06:11:26.809Z,5.00
2017-11-26T06:13:54.510Z,5.00
2017-11-26T06:16:22.101Z,5.00
2017-11-26T06:18:49.719Z,4.90
2017-11-26T06:21:17.318Z,4.90
2017-11-26T06:23:44.964Z,4.90
2017-11-26T06:26:13.338Z,4.90
2017-11-26T06:28:41.752Z,5.00
2017-11-26T06:31:09.384Z,5.00
2017-11-26T06:33:37.741Z,5.00
2017-11-26T06:36:05.359Z,5.00
2017-11-26T06:38:32.959Z,5.00
2017-11-26T06:41:00.628Z,5.00
2017-11-26T06:43:28.205Z,5.00
2017-11-26T06:45:55.830Z,5.10
2017-11-26T06:48:23.421Z,5.10
2017-11-26T06:50:51.090Z,5.20
2017-11-26T06:53:18.688Z,5.20
2017-11-26T06:55:46.935Z,5.20
2017-11-26T06:58:14.527Z,5.30
2017-11-26T07:00:42.149Z,5.30
2017-11-26T07:03:09.821Z,5.30
2017-11-26T07:05:37.487Z,5.30
2017-11-26T07:08:05.861Z,5.40
2017-11-26T07:10:33.479Z,5.30
2017-11-26T07:13:01.065Z,5.30
2017-11-26T07:15:28.702Z,5.30
2017-11-26T07:17:56.294Z,5.30
2017-11-26T07:20:23.885Z,5.30
2017-11-26T07:22:52.352Z,5.30
2017-11-26T07:25:19.946Z,5.30
2017-11-26T07:27:47.578Z,5.30
2017-11-26T07:30:15.250Z,5.30
2017-11-26T07:32:43.637Z,5.30
2017-11-26T07:35:12.106Z,5.30
2017-11-26T07:37:40.590Z,5.30
2017-11-26T07:40:08.245Z,5.30
2017-11-26T07:42:35.917Z,5.30
2017-11-26T07:45:04.286Z,5.40
2017-11-26T07:47:31.934Z,5.30
2017-11-26T07:49:59.617Z,5.40
2017-11-26T07:52:27.254Z,5.40
2017-11-26T07:54:54.846Z,5.40
2017-11-26T07:57:22.442Z,5.50
2017-11-26T07:59:50.057Z,5.50
2017-11-26T08:02:17.649Z,5.50
2017-11-26T08:04:46.037Z,5.50
2017-11-26T08:07:13.677Z,5.50
2017-11-26T08:09:42.157Z,5.50
2017-11-26T08:12:09.753Z,5.50
2017-11-26T08:14:37.478Z,5.50
2017-11-26T08:17:05.149Z,5.60
2017-11-26T08:19:33.537Z,5.60
2017-11-26T08:22:01.899Z,5.60
2017-11-26T08:24:30.289Z,5.60
2017-11-26T08:26:58.649Z,5.60
2017-11-26T08:29:26.275Z,5.60
2017-11-26T08:31:53.874Z,5.70
2017-11-26T08:34:21.554Z,5.70
2017-11-26T08:36:50.038Z,5.70
2017-11-26T08:39:17.678Z,5.70
2017-11-26T08:41:45.319Z,5.70
2017-11-26T08:44:12.935Z,5.70
2017-11-26T08:46:41.323Z,5.80
2017-11-26T08:49:09.686Z,5.80
2017-11-26T08:51:38.077Z,5.80
2017-11-26T08:54:06.440Z,5.90
2017-11-26T08:56:34.835Z,5.90
2017-11-26T08:59:03.194Z,5.90
2017-11-26T09:01:30.811Z,5.90
2017-11-26T09:03:58.433Z,5.90
2017-11-26T09:06:27.294Z,6.00
2017-11-26T09:08:57.535Z,6.00
2017-11-26T09:11:25.148Z,6.00
2017-11-26T09:13:52.747Z,6.00
2017-11-26T09:16:20.367Z,6.10
2017-11-26T09:18:47.970Z,6.10
2017-11-26T09:21:15.590Z,6.10
2017-11-26T09:23:43.215Z,6.10
2017-11-26T09:26:11.691Z,6.10
2017-11-26T09:28:39.353Z,6.10
2017-11-26T09:31:07.017Z,6.10
2017-11-26T09:33:34.623Z,6.20
2017-11-26T09:36:02.245Z,6.20
2017-11-26T09:38:29.843Z,6.10
2017-11-26T09:40:57.570Z,6.10
2017-11-26T09:43:25.169Z,6.10
2017-11-26T09:45:52.794Z,6.10
2017-11-26T09:48:20.420Z,6.20
2017-11-26T09:50:48.018Z,6.20
2017-11-26T09:53:16.563Z,6.30
2017-11-26T09:55:44.162Z,6.30
2017-11-26T09:58:11.830Z,6.30
2017-11-26T10:00:40.209Z,6.40
2017-11-26T10:03:08.598Z,6.40
2017-11-26T10:05:37.091Z,6.40
2017-11-26T10:08:05.559Z,6.40
2017-11-26T10:10:33.921Z,6.40
2017-11-26T10:13:01.594Z,6.40
2017-11-26T10:15:29.263Z,6.50
2017-11-26T10:17:57.656Z,6.50
2017-11-26T10:20:26.027Z,6.50
2017-11-26T10:22:54.422Z,6.50
2017-11-26T10:25:22.046Z,6.50
2017-11-26T10:27:49.721Z,6.50
2017-11-26T10:30:17.333Z,6.50
2017-11-26T10:32:44.953Z,6.50
2017-11-26T10:35:14.074Z,6.40
2017-11-26T10:37:41.667Z,6.40
2017-11-26T10:40:09.376Z,6.40
2017-11-26T10:42:37.780Z,6.40
2017-11-26T10:45:05.421Z,6.40
2017-11-26T10:47:33.785Z,6.50
2017-11-26T10:50:01.412Z,6.50
2017-11-26T10:52:29.138Z,6.60
2017-11-26T10:54:57.521Z,6.70
2017-11-26T10:57:25.981Z,6.70
2017-11-26T10:59:53.617Z,6.70
2017-11-26T11:02:21.214Z,6.70
2017-11-26T11:04:49.689Z,6.70
2017-11-26T11:07:17.301Z,6.70
2017-11-26T11:09:44.924Z,6.70
2017-11-26T11:12:13.393Z,6.80
2017-11-26T11:14:40.989Z,6.80
2017-11-26T11:17:08.615Z,6.90
2017-11-26T11:19:36.213Z,6.90
2017-11-26T11:22:03.827Z,7.00
2017-11-26T11:24:31.421Z,7.00
2017-11-26T11:26:59.829Z,7.00
2017-11-26T11:29:27.413Z,7.00
2017-11-26T11:31:55.030Z,7.10
2017-11-26T11:34:23.389Z,7.10
2017-11-26T11:36:51.050Z,7.10
2017-11-26T11:39:18.650Z,7.10
2017-11-26T11:41:46.250Z,7.10
2017-11-26T11:44:13.946Z,7.20
2017-11-26T11:46:42.421Z,7.20
2017-11-26T11:49:10.909Z,7.20
2017-11-26T11:51:39.275Z,7.20
2017-11-26T11:54:06.903Z,7.10
2017-11-26T11:56:34.497Z,7.10
2017-11-26T11:59:02.882Z,7.20
2017-11-26T12:01:31.237Z,7.10
2017-11-26T12:03:58.873Z,7.10
2017-11-26T12:06:26.483Z,7.20
2017-11-26T12:08:54.103Z,7.20
2017-11-26T12:11:21.710Z,7.20
2017-11-26T12:13:49.386Z,7.30
2017-11-26T12:16:17.044Z,7.20
2017-11-26T12:18:46.145Z,7.30
2017-11-26T12:21:14.539Z,7.30
2017-11-26T12:23:43.011Z,7.30
2017-11-26T12:26:11.406Z,7.30
2017-11-26T12:28:39.870Z,7.30
2017-11-26T12:31:08.259Z,7.30
2017-11-26T12:33:36.618Z,7.30
2017-11-26T12:36:04.997Z,7.30
2017-11-26T12:38:32.582Z,7.20
2017-11-26T12:41:00.966Z,7.20
2017-11-26T12:43:29.326Z,7.20
2017-11-26T12:45:56.941Z,7.20
2017-11-26T12:48:24.538Z,7.20
2017-11-26T12:50:52.218Z,7.20
2017-11-26T12:53:20.587Z,7.10
2017-11-26T12:55:48.262Z,7.20
2017-11-26T12:58:16.625Z,7.10
2017-11-26T13:00:44.234Z,7.10
2017-11-26T13:03:11.848Z,7.10
2017-11-26T13:05:39.445Z,7.10
2017-11-26T13:08:07.830Z,7.20
2017-11-26T13:10:35.475Z,7.10
2017-11-26T13:13:03.945Z,7.20
2017-11-26T13:15:31.534Z,7.20
2017-11-26T13:17:59.909Z,7.30
2017-11-26T13:20:28.277Z,7.30
2017-11-26T13:22:56.658Z,7.30
2017-11-26T13:25:25.028Z,7.20
2017-11-26T13:27:54.150Z,7.20
2017-11-26T13:30:21.798Z,7.20
2017-11-26T13:32:50.273Z,7.20
2017-11-26T13:35:18.631Z,7.20
2017-11-26T13:37:46.242Z,7.20
2017-11-26T13:40:13.872Z,7.20
2017-11-26T13:42:41.538Z,7.20
2017-11-26T13:45:10.635Z,7.30
2017-11-26T13:47:39.058Z,7.30
2017-11-26T13:50:06.657Z,7.30
2017-11-26T13:52:34.253Z,7.30
2017-11-26T13:55:02.650Z,7.30
2017-11-26T13:57:30.294Z,7.30
2017-11-26T13:59:58.766Z,7.30
2017-11-26T14:02:27.966Z,7.30
2017-11-26T14:04:56.359Z,7.40
2017-11-26T14:07:24.731Z,7.30
2017-11-26T14:09:53.205Z,7.30
2017-11-26T14:12:21.562Z,7.30
2017-11-26T14:14:49.182Z,7.30
2017-11-26T14:17:16.774Z,7.30
2017-11-26T14:19:44.474Z,7.40
2017-11-26T14:22:12.861Z,7.40
2017-11-26T14:24:41.333Z,7.30
2017-11-26T14:27:08.959Z,7.30
2017-11-26T14:29:36.563Z,7.40
2017-11-26T14:32:05.042Z,7.40
2017-11-26T14:34:34.133Z,7.40
2017-11-26T14:37:01.802Z,7.40
2017-11-26T14:39:29.394Z,7.30
2017-11-26T14:41:57.027Z,7.50
2017-11-26T14:44:26.125Z,7.40
2017-11-26T14:46:54.502Z,7.50
2017-11-26T14:49:22.105Z,7.40
2017-11-26T14:51:49.830Z,7.50
2017-11-26T14:54:18.929Z,7.50
2017-11-26T14:56:47.297Z,7.50
2017-11-26T14:59:14.971Z,7.50
2017-11-26T15:01:43.455Z,7.50
2017-11-26T15:04:11.045Z,7.50
2017-11-26T15:06:38.677Z,7.50
2017-11-26T15:09:07.775Z,7.40
2017-11-26T15:11:36.192Z,7.40
2017-11-26T15:14:03.787Z,7.40
2017-11-26T15:16:31.372Z,7.40
2017-11-26T15:18:59.042Z,7.40
2017-11-26T15:21:27.402Z,7.40
2017-11-26T15:23:55.027Z,7.40
2017-11-26T15:26:22.638Z,7.40
2017-11-26T15:28:50.305Z,7.40
2017-11-26T15:31:17.895Z,7.40
2017-11-26T15:33:45.518Z,7.40
2017-11-26T15:36:13.114Z,7.40
2017-11-26T15:38:41.500Z,7.30
2017-11-26T15:41:09.095Z,7.30
2017-11-26T15:43:36.749Z,7.30
2017-11-26T15:46:04.362Z,7.30
2017-11-26T15:48:32.718Z,7.30
2017-11-26T15:51:00.329Z,7.30
2017-11-26T15:53:27.924Z,7.30
2017-11-26T15:55:55.538Z,7.30
2017-11-26T15:58:23.910Z,7.30
2017-11-26T16:00:52.299Z,7.40
2017-11-26T16:03:20.774Z,7.40
2017-11-26T16:05:49.251Z,7.40
2017-11-26T16:08:17.631Z,7.40
2017-11-26T16:10:46.008Z,7.40
2017-11-26T16:13:13.593Z,7.40
2017-11-26T16:15:42.054Z,7.40
2017-11-26T16:18:09.714Z,7.40
2017-11-26T16:20:37.328Z,7.40
2017-11-26T16:23:04.916Z,7.40
2017-11-26T16:25:32.601Z,7.30
2017-11-26T16:28:00.270Z,7.20
2017-11-26T16:30:28.628Z,7.20
2017-11-26T16:32:56.310Z,7.20
2017-11-26T16:35:23.969Z,7.20
2017-11-26T16:37:51.646Z,7.10
2017-11-26T16:40:20.013Z,7.10
2017-11-26T16:42:47.630Z,7.10
2017-11-26T16:45:15.217Z,7.10
2017-11-26T16:47:42.843Z,7.00
2017-11-26T16:50:10.466Z,7.10
2017-11-26T16:52:38.139Z,7.10
2017-11-26T16:55:06.514Z,7.10
2017-11-26T16:57:34.944Z,7.10
2017-11-26T17:00:02.549Z,7.10
2017-11-26T17:02:30.156Z,7.10
2017-11-26T17:04:57.780Z,7.20
2017-11-26T17:07:26.133Z,7.20
2017-11-26T17:09:53.753Z,7.10
2017-11-26T17:12:21.345Z,7.20
2017-11-26T17:14:49.041Z,7.10
2017-11-26T17:17:16.716Z,7.10
2017-11-26T17:19:45.092Z,7.10
2017-11-26T17:22:12.748Z,7.10
2017-11-26T17:24:40.413Z,7.10
2017-11-26T17:27:08.010Z,7.10
2017-11-26T17:29:35.625Z,7.10
2017-11-26T17:32:03.226Z,7.10
2017-11-26T17:34:30.843Z,7.10
2017-11-26T17:36:58.442Z,7.10
2017-11-26T17:39:26.897Z,7.10
2017-11-26T17:41:54.566Z,7.10
2017-11-26T17:44:23.661Z,7.10
2017-11-26T17:46:51.286Z,7.10
2017-11-26T17:49:18.989Z,7.10
2017-11-26T17:51:46.605Z,7.00
2017-11-26T17:54:14.217Z,7.10
2017-11-26T17:56:43.342Z,7.00
2017-11-26T17:59:10.978Z,7.00
2017-11-26T18:01:39.360Z,7.10
2017-11-26T18:04:07.737Z,7.10
2017-11-26T18:06:36.215Z,7.00
2017-11-26T18:09:03.889Z,7.00
2017-11-26T18:11:32.363Z,7.00
2017-11-26T18:14:00.716Z,7.00
2017-11-26T18:16:28.406Z,7.00
2017-11-26T18:18:56.776Z,7.00
2017-11-26T18:21:24.365Z,7.00
2017-11-26T18:23:52.826Z,7.10
2017-11-26T18:26:21.182Z,7.10
2017-11-26T18:28:48.869Z,7.10
2017-11-26T18:31:16.525Z,7.10
2017-11-26T18:33:44.133Z,7.10
2017-11-26T18:36:11.727Z,7.10
2017-11-26T18:38:39.368Z,7.10
2017-11-26T18:41:06.958Z,7.10
2017-11-26T18:43:34.582Z,7.10
2017-11-26T18:46:02.218Z,7.20
2017-11-26T18:48:30.589Z,7.20
2017-11-26T18:50:58.953Z,7.10
2017-11-26T18:53:26.608Z,7.10
2017-11-26T18:55:54.205Z,7.10
2017-11-26T18:58:22.567Z,7.20
2017-11-26T19:00:51.702Z,7.10
2017-11-26T19:03:19.746Z,7.20
2017-11-26T19:05:48.120Z,7.20
2017-11-26T19:08:15.713Z,7.20
2017-11-26T19:10:43.334Z,7.20
2017-11-26T19:13:11.724Z,7.20
2017-11-26T19:15:40.922Z,7.10
2017-11-26T19:18:08.585Z,7.20
2017-11-26T19:20:37.337Z,7.20
2017-11-26T19:23:04.954Z,7.20
2017-11-26T19:25:33.330Z,7.20
2017-11-26T19:28:01.696Z,7.30
2017-11-26T19:30:31.027Z,7.30
2017-11-26T19:32:59.474Z,7.30
2017-11-26T19:35:27.141Z,7.20
2017-11-26T19:37:54.750Z,7.20
2017-11-26T19:40:22.365Z,7.30
2017-11-26T19:42:50.750Z,7.30
2017-11-26T19:45:19.149Z,7.30
2017-11-26T19:47:47.503Z,7.30
2017-11-26T19:50:15.107Z,7.30
2017-11-26T19:52:42.839Z,7.30
2017-11-26T19:55:11.202Z,7.30
2017-11-26T19:57:38.805Z,7.30
2017-11-26T20:00:06.395Z,7.30
2017-11-26T20:02:34.006Z,7.30
2017-11-26T20:05:02.374Z,7.30
2017-11-26T20:07:30.754Z,7.30
2017-11-26T20:09:59.966Z,7.30
2017-11-26T20:12:28.348Z,7.30
2017-11-26T20:14:56.701Z,7.30
2017-11-26T20:17:24.320Z,7.30
2017-11-26T20:19:51.920Z,7.30
2017-11-26T20:22:19.533Z,7.30
2017-11-26T20:24:47.126Z,7.40
2017-11-26T20:27:14.717Z,7.30
2017-11-26T20:29:42.389Z,7.30
2017-11-26T20:32:10.770Z,7.30
2017-11-26T20:34:39.218Z,7.30
2017-11-26T20:37:06.811Z,7.30
2017-11-26T20:39:34.470Z,7.40
2017-11-26T20:42:02.062Z,7.40
2017-11-26T20:44:29.682Z,7.40
2017-11-26T20:46:57.286Z,7.40
2017-11-26T20:49:25.649Z,7.40
2017-11-26T20:51:54.017Z,7.40
2017-11-26T20:54:21.629Z,7.40
2017-11-26T20:56:49.209Z,7.40
2017-11-26T20:59:16.907Z,7.50
2017-11-26T21:01:45.291Z,7.50
2017-11-26T21:04:14.385Z,7.50
2017-11-26T21:06:43.506Z,7.50
2017-11-26T21:09:11.862Z,7.50
2017-11-26T21:11:40.244Z,7.50
2017-11-26T21:14:09.350Z,7.50
2017-11-26T21:16:37.817Z,7.50
2017-11-26T21:19:06.202Z,7.50
2017-11-26T21:21:34.578Z,7.50
2017-11-26T21:24:02.170Z,7.50
2017-11-26T21:26:29.783Z,7.50
2017-11-26T21:28:57.386Z,7.50
2017-11-26T21:31:25.757Z,7.50
2017-11-26T21:33:54.224Z,7.50
2017-11-26T21:36:22.602Z,7.50
2017-11-26T21:38:50.955Z,7.50
2017-11-26T21:41:18.649Z,7.50
2017-11-26T21:43:46.309Z,7.50
2017-11-26T21:46:13.894Z,7.50
2017-11-26T21:48:42.354Z,7.50
2017-11-26T21:51:10.026Z,7.50
2017-11-26T21:53:38.411Z,7.60
2017-11-26T21:56:06.769Z,7.60
2017-11-26T21:58:34.379Z,7.60
2017-11-26T22:01:02.065Z,7.70
2017-11-26T22:03:29.771Z,7.70
2017-11-26T22:05:58.878Z,7.70
2017-11-26T22:08:27.350Z,7.70
2017-11-26T22:10:55.734Z,7.70
2017-11-26T22:13:24.938Z,7.70
2017-11-26T22:15:53.298Z,7.70
2017-11-26T22:18:20.971Z,7.70
2017-11-26T22:20:49.334Z,7.60
2017-11-26T22:23:17.015Z,7.60
2017-11-26T22:25:45.494Z,7.60
2017-11-26T22:28:13.878Z,7.50
2017-11-26T22:30:42.362Z,7.60
2017-11-26T22:33:10.715Z,7.60
2017-11-26T22:35:38.334Z,7.60
2017-11-26T22:38:05.970Z,7.60
2017-11-26T22:40:34.345Z,7.60
2017-11-26T22:43:02.721Z,7.60
2017-11-26T22:45:31.924Z,7.60
2017-11-26T22:48:00.283Z,7.50
2017-11-26T22:50:27.898Z,7.50
2017-11-26T22:52:55.491Z,7.50
2017-11-26T22:55:23.109Z,7.50
2017-11-26T22:57:51.466Z,7.50
2017-11-26T23:00:19.874Z,7.40
2017-11-26T23:02:49.150Z,7.50
2017-11-26T23:05:17.510Z,7.40
2017-11-26T23:07:45.189Z,7.40
2017-11-26T23:10:13.569Z,7.40
2017-11-26T23:12:42.697Z,7.40
2017-11-26T23:15:11.066Z,7.40
2017-11-26T23:17:38.689Z,7.50
2017-11-26T23:20:06.373Z,7.50
2017-11-26T23:22:34.746Z,7.50
2017-11-26T23:25:02.346Z,7.50
2017-11-26T23:27:29.978Z,7.50
2017-11-26T23:29:57.573Z,7.50
2017-11-26T23:32:25.177Z,7.50
2017-11-26T23:34:52.770Z,7.40
2017-11-26T23:37:21.238Z,7.50
2017-11-26T23:39:48.825Z,7.40
2017-11-26T23:42:17.220Z,7.40
2017-11-26T23:44:44.845Z,7.50
2017-11-26T23:47:14.024Z,7.50
2017-11-26T23:49:41.641Z,7.40
2017-11-26T23:52:09.275Z,7.50
2017-11-26T23:54:38.389Z,7.50
2017-11-26T23:57:06.737Z,7.50
2017-11-26T23:59:34.338Z,7.50
